sensor_id;sensor_type;location;lat;lon;timestamp;pressure;altitude;pressure_sealevel;temperature;humidity
71735;BME280;59577;52.122;5.406;2024-03-29T00:00:25;99103.16;;;7.98;93.60
71735;BME280;59577;52.122;5.406;2024-03-29T00:02:51;99107.38;;;7.95;93.30
71735;BME280;59577;52.122;5.406;2024-03-29T00:05:16;99096.94;;;7.90;94.11
71735;BME280;59577;52.122;5.406;2024-03-29T00:07:42;99093.47;;;7.86;94.15
71735;BME280;59577;52.122;5.406;2024-03-29T00:10:07;99093.84;;;7.88;94.29
71735;BME280;59577;52.122;5.406;2024-03-29T00:12:33;99090.78;;;7.86;93.86
71735;BME280;59577;52.122;5.406;2024-03-29T00:14:58;99086.91;;;7.83;94.10
71735;BME280;59577;52.122;5.406;2024-03-29T00:17:24;99091.91;;;7.85;94.59
71735;BME280;59577;52.122;5.406;2024-03-29T00:19:49;99089.22;;;7.85;94.22
71735;BME280;59577;52.122;5.406;2024-03-29T00:22:15;99100.00;;;7.85;93.91
71735;BME280;59577;52.122;5.406;2024-03-29T00:24:40;99096.50;;;7.81;93.87
71735;BME280;59577;52.122;5.406;2024-03-29T00:27:06;99097.63;;;7.76;94.30
71735;BME280;59577;52.122;5.406;2024-03-29T00:29:32;99093.00;;;7.77;94.47
71735;BME280;59577;52.122;5.406;2024-03-29T00:31:58;99101.44;;;7.71;94.52
71735;BME280;59577;52.122;5.406;2024-03-29T00:34:23;99102.22;;;7.72;94.87
71735;BME280;59577;52.122;5.406;2024-03-29T00:36:49;99108.78;;;7.75;94.50
71735;BME280;59577;52.122;5.406;2024-03-29T00:39:14;99115.69;;;7.72;95.13
71735;BME280;59577;52.122;5.406;2024-03-29T00:41:40;99116.44;;;7.69;95.30
71735;BME280;59577;52.122;5.406;2024-03-29T00:44:05;99124.16;;;7.70;95.46
71735;BME280;59577;52.122;5.406;2024-03-29T00:46:31;99121.44;;;7.70;95.29
71735;BME280;59577;52.122;5.406;2024-03-29T00:48:56;99132.59;;;7.69;95.47
71735;BME280;59577;52.122;5.406;2024-03-29T00:51:22;99133.69;;;7.64;95.80
71735;BME280;59577;52.122;5.406;2024-03-29T00:53:47;99121.81;;;7.69;95.34
71735;BME280;59577;52.122;5.406;2024-03-29T00:56:15;99134.94;;;7.74;95.17
71735;BME280;59577;52.122;5.406;2024-03-29T00:58:40;99129.19;;;7.76;95.43
71735;BME280;59577;52.122;5.406;2024-03-29T01:01:06;99135.69;;;7.75;95.37
71735;BME280;59577;52.122;5.406;2024-03-29T01:03:31;99138.41;;;7.78;95.35
71735;BME280;59577;52.122;5.406;2024-03-29T01:05:57;99135.72;;;7.78;95.54
71735;BME280;59577;52.122;5.406;2024-03-29T01:08:22;99129.19;;;7.76;95.70
71735;BME280;59577;52.122;5.406;2024-03-29T01:10:49;99128.38;;;7.75;95.65
71735;BME280;59577;52.122;5.406;2024-03-29T01:13:14;99131.47;;;7.74;96.17
71735;BME280;59577;52.122;5.406;2024-03-29T01:15:40;99128.00;;;7.73;95.73
71735;BME280;59577;52.122;5.406;2024-03-29T01:18:06;99134.53;;;7.72;95.66
71735;BME280;59577;52.122;5.406;2024-03-29T01:20:31;99125.66;;;7.68;96.52
71735;BME280;59577;52.122;5.406;2024-03-29T01:22:56;99119.88;;;7.69;96.45
71735;BME280;59577;52.122;5.406;2024-03-29T01:25:23;99112.97;;;7.68;96.52
71735;BME280;59577;52.122;5.406;2024-03-29T01:27:50;99117.94;;;7.66;96.58
71735;BME280;59577;52.122;5.406;2024-03-29T01:30:15;99113.31;;;7.63;96.65
71735;BME280;59577;52.122;5.406;2024-03-29T01:32:41;99115.19;;;7.59;96.66
71735;BME280;59577;52.122;5.406;2024-03-29T01:35:06;99113.66;;;7.58;97.58
71735;BME280;59577;52.122;5.406;2024-03-29T01:37:32;99117.09;;;7.55;97.17
71735;BME280;59577;52.122;5.406;2024-03-29T01:39:57;99103.66;;;7.59;96.91
71735;BME280;59577;52.122;5.406;2024-03-29T01:42:23;99101.72;;;7.56;97.51
71735;BME280;59577;52.122;5.406;2024-03-29T01:44:48;99109.03;;;7.55;97.58
71735;BME280;59577;52.122;5.406;2024-03-29T01:47:16;99100.94;;;7.51;97.77
71735;BME280;59577;52.122;5.406;2024-03-29T01:49:44;99099.41;;;7.54;97.32
71735;BME280;59577;52.122;5.406;2024-03-29T01:52:11;99095.94;;;7.53;97.55
71735;BME280;59577;52.122;5.406;2024-03-29T01:54:37;99088.59;;;7.50;97.57
71735;BME280;59577;52.122;5.406;2024-03-29T01:57:04;99085.50;;;7.45;97.83
71735;BME280;59577;52.122;5.406;2024-03-29T01:59:30;99073.16;;;7.44;97.90
71735;BME280;59577;52.122;5.406;2024-03-29T02:01:58;99075.84;;;7.44;97.75
71735;BME280;59577;52.122;5.406;2024-03-29T02:04:26;99074.69;;;7.41;97.68
71735;BME280;59577;52.122;5.406;2024-03-29T02:06:51;99076.19;;;7.35;98.29
71735;BME280;59577;52.122;5.406;2024-03-29T02:09:17;99078.09;;;7.31;98.31
71735;BME280;59577;52.122;5.406;2024-03-29T02:11:43;99079.97;;;7.27;98.19
71735;BME280;59577;52.122;5.406;2024-03-29T02:14:08;99076.84;;;7.21;98.60
71735;BME280;59577;52.122;5.406;2024-03-29T02:16:34;99076.44;;;7.19;98.38
71735;BME280;59577;52.122;5.406;2024-03-29T02:18:59;99094.16;;;7.20;98.62
71735;BME280;59577;52.122;5.406;2024-03-29T02:21:25;99093.75;;;7.18;98.41
71735;BME280;59577;52.122;5.406;2024-03-29T02:24:04;99095.97;;;7.12;98.43
71735;BME280;59577;52.122;5.406;2024-03-29T02:26:29;99099.84;;;7.11;98.73
71735;BME280;59577;52.122;5.406;2024-03-29T02:28:58;99107.13;;;7.11;99.21
71735;BME280;59577;52.122;5.406;2024-03-29T02:31:23;99108.66;;;7.12;99.32
71735;BME280;59577;52.122;5.406;2024-03-29T02:33:49;99119.06;;;7.13;98.80
71735;BME280;59577;52.122;5.406;2024-03-29T02:36:15;99121.00;;;7.13;98.85
71735;BME280;59577;52.122;5.406;2024-03-29T02:38:40;99116.75;;;7.12;98.92
71735;BME280;59577;52.122;5.406;2024-03-29T02:41:06;99115.56;;;7.09;99.26
71735;BME280;59577;52.122;5.406;2024-03-29T02:43:31;99122.09;;;7.08;99.38
71735;BME280;59577;52.122;5.406;2024-03-29T02:45:57;99128.59;;;7.07;99.23
71735;BME280;59577;52.122;5.406;2024-03-29T02:48:22;99120.91;;;7.06;100.00
71735;BME280;59577;52.122;5.406;2024-03-29T02:50:48;99125.91;;;7.07;100.00
71735;BME280;59577;52.122;5.406;2024-03-29T02:53:13;99114.06;;;7.12;99.26
71735;BME280;59577;52.122;5.406;2024-03-29T02:55:41;99111.38;;;7.12;99.43
71735;BME280;59577;52.122;5.406;2024-03-29T02:58:06;99114.44;;;7.14;99.01
71735;BME280;59577;52.122;5.406;2024-03-29T03:00:33;99124.47;;;7.17;99.00
71735;BME280;59577;52.122;5.406;2024-03-29T03:02:59;99111.78;;;7.18;99.47
71735;BME280;59577;52.122;5.406;2024-03-29T03:05:24;99117.97;;;7.18;99.57
71735;BME280;59577;52.122;5.406;2024-03-29T03:07:50;99118.72;;;7.19;99.81
71735;BME280;59577;52.122;5.406;2024-03-29T03:10:35;99114.88;;;7.20;99.10
71735;BME280;59577;52.122;5.406;2024-03-29T03:13:19;99116.84;;;7.23;98.97
71735;BME280;59577;52.122;5.406;2024-03-29T03:15:44;99117.63;;;7.23;98.85
71735;BME280;59577;52.122;5.406;2024-03-29T03:18:10;99118.78;;;7.26;98.97
71735;BME280;59577;52.122;5.406;2024-03-29T03:20:36;99118.41;;;7.27;98.84
71735;BME280;59577;52.122;5.406;2024-03-29T03:23:03;99126.13;;;7.29;98.88
71735;BME280;59577;52.122;5.406;2024-03-29T03:25:29;99128.09;;;7.32;98.52
71735;BME280;59577;52.122;5.406;2024-03-29T03:27:55;99122.72;;;7.36;98.43
71735;BME280;59577;52.122;5.406;2024-03-29T03:30:21;99134.28;;;7.40;98.08
71735;BME280;59577;52.122;5.406;2024-03-29T03:32:47;99141.25;;;7.44;97.67
71735;BME280;59577;52.122;5.406;2024-03-29T03:35:13;99141.28;;;7.48;97.71
71735;BME280;59577;52.122;5.406;2024-03-29T03:37:39;99136.31;;;7.53;97.29
71735;BME280;59577;52.122;5.406;2024-03-29T03:40:05;99129.38;;;7.52;97.52
71735;BME280;59577;52.122;5.406;2024-03-29T03:42:32;99140.94;;;7.53;97.58
71735;BME280;59577;52.122;5.406;2024-03-29T03:44:57;99138.66;;;7.55;97.51
71735;BME280;59577;52.122;5.406;2024-03-29T03:47:23;99126.34;;;7.58;97.52
71735;BME280;59577;52.122;5.406;2024-03-29T03:49:48;99145.63;;;7.60;97.48
71735;BME280;59577;52.122;5.406;2024-03-29T03:52:14;99144.84;;;7.63;97.50
71735;BME280;59577;52.122;5.406;2024-03-29T03:54:39;99138.34;;;7.67;96.97
71735;BME280;59577;52.122;5.406;2024-03-29T03:57:05;99143.00;;;7.74;97.17
71735;BME280;59577;52.122;5.406;2024-03-29T03:59:30;99148.03;;;7.76;97.12
71735;BME280;59577;52.122;5.406;2024-03-29T04:01:56;99147.28;;;7.79;96.79
71735;BME280;59577;52.122;5.406;2024-03-29T04:04:22;99147.34;;;7.86;96.30
71735;BME280;59577;52.122;5.406;2024-03-29T04:06:47;99145.44;;;7.90;96.71
71735;BME280;59577;52.122;5.406;2024-03-29T04:09:16;99150.44;;;7.91;96.22
71735;BME280;59577;52.122;5.406;2024-03-29T04:11:42;99155.84;;;7.95;96.39
71735;BME280;59577;52.122;5.406;2024-03-29T04:14:07;99163.59;;;8.00;96.17
71735;BME280;59577;52.122;5.406;2024-03-29T04:16:33;99152.44;;;8.02;95.48
71735;BME280;59577;52.122;5.406;2024-03-29T04:18:59;99154.00;;;8.06;95.72
71735;BME280;59577;52.122;5.406;2024-03-29T04:21:24;99154.06;;;8.14;95.37
71735;BME280;59577;52.122;5.406;2024-03-29T04:23:50;99140.22;;;8.15;95.21
71735;BME280;59577;52.122;5.406;2024-03-29T04:26:16;99138.28;;;8.16;95.75
71735;BME280;59577;52.122;5.406;2024-03-29T04:28:41;99139.06;;;8.20;95.10
71735;BME280;59577;52.122;5.406;2024-03-29T04:31:07;99141.00;;;8.19;95.38
71735;BME280;59577;52.122;5.406;2024-03-29T04:33:32;99141.75;;;8.20;95.14
71735;BME280;59577;52.122;5.406;2024-03-29T04:36:04;99144.47;;;8.27;94.90
71735;BME280;59577;52.122;5.406;2024-03-29T04:38:31;99138.72;;;8.32;94.82
71735;BME280;59577;52.122;5.406;2024-03-29T04:40:58;99142.22;;;8.33;94.66
71735;BME280;59577;52.122;5.406;2024-03-29T04:43:25;99145.28;;;8.31;95.48
71735;BME280;59577;52.122;5.406;2024-03-29T04:46:01;99154.16;;;8.35;95.25
71735;BME280;59577;52.122;5.406;2024-03-29T04:48:29;99141.47;;;8.39;95.10
71735;BME280;59577;52.122;5.406;2024-03-29T04:50:55;99128.00;;;8.39;95.90
71735;BME280;59577;52.122;5.406;2024-03-29T04:53:22;99149.94;;;8.38;96.45
71735;BME280;59577;52.122;5.406;2024-03-29T04:55:53;99136.44;;;8.34;98.40
71735;BME280;59577;52.122;5.406;2024-03-29T04:58:19;99132.53;;;8.24;100.00
71735;BME280;59577;52.122;5.406;2024-03-29T05:00:44;99139.03;;;8.13;100.00
71735;BME280;59577;52.122;5.406;2024-03-29T05:03:09;99139.34;;;8.04;100.00
71735;BME280;59577;52.122;5.406;2024-03-29T05:05:35;99151.22;;;7.96;100.00
71735;BME280;59577;52.122;5.406;2024-03-29T05:08:00;99140.78;;;7.87;100.00
71735;BME280;59577;52.122;5.406;2024-03-29T05:10:26;99144.19;;;7.77;100.00
71735;BME280;59577;52.122;5.406;2024-03-29T05:12:51;99159.13;;;7.67;100.00
71735;BME280;59577;52.122;5.406;2024-03-29T05:15:19;99158.25;;;7.56;100.00
71735;BME280;59577;52.122;5.406;2024-03-29T05:17:44;99153.22;;;7.50;100.00
71735;BME280;59577;52.122;5.406;2024-03-29T05:20:10;99152.06;;;7.48;100.00
71735;BME280;59577;52.122;5.406;2024-03-29T05:22:36;99157.81;;;7.46;100.00
71735;BME280;59577;52.122;5.406;2024-03-29T05:25:01;99144.69;;;7.41;100.00
71735;BME280;59577;52.122;5.406;2024-03-29T05:27:28;99169.66;;;7.38;100.00
71735;BME280;59577;52.122;5.406;2024-03-29T05:29:54;99170.81;;;7.37;100.00
71735;BME280;59577;52.122;5.406;2024-03-29T05:32:19;99175.75;;;7.35;100.00
71735;BME280;59577;52.122;5.406;2024-03-29T05:34:45;99193.84;;;7.34;100.00
71735;BME280;59577;52.122;5.406;2024-03-29T05:37:12;99201.91;;;7.34;100.00
71735;BME280;59577;52.122;5.406;2024-03-29T05:39:37;99203.47;;;7.36;100.00
71735;BME280;59577;52.122;5.406;2024-03-29T05:42:03;99210.38;;;7.37;100.00
71735;BME280;59577;52.122;5.406;2024-03-29T05:44:29;99214.28;;;7.39;100.00
71735;BME280;59577;52.122;5.406;2024-03-29T05:46:54;99211.19;;;7.37;100.00
71735;BME280;59577;52.122;5.406;2024-03-29T05:49:19;99204.63;;;7.38;100.00
71735;BME280;59577;52.122;5.406;2024-03-29T05:51:45;99206.56;;;7.38;100.00
71735;BME280;59577;52.122;5.406;2024-03-29T05:54:11;99221.94;;;7.37;100.00
71735;BME280;59577;52.122;5.406;2024-03-29T05:56:36;99235.00;;;7.39;100.00
71735;BME280;59577;52.122;5.406;2024-03-29T05:59:02;99231.56;;;7.38;100.00
71735;BME280;59577;52.122;5.406;2024-03-29T06:01:29;99235.78;;;7.36;100.00
71735;BME280;59577;52.122;5.406;2024-03-29T06:03:55;99227.69;;;7.36;100.00
71735;BME280;59577;52.122;5.406;2024-03-29T06:06:22;99221.94;;;7.37;100.00
71735;BME280;59577;52.122;5.406;2024-03-29T06:08:50;99238.13;;;7.41;100.00
71735;BME280;59577;52.122;5.406;2024-03-29T06:11:15;99246.59;;;7.43;100.00
71735;BME280;59577;52.122;5.406;2024-03-29T06:13:41;99245.81;;;7.42;100.00
71735;BME280;59577;52.122;5.406;2024-03-29T06:16:20;99236.59;;;7.43;100.00
71735;BME280;59577;52.122;5.406;2024-03-29T06:19:05;99254.34;;;7.48;100.00
71735;BME280;59577;52.122;5.406;2024-03-29T06:21:30;99255.50;;;7.50;100.00
71735;BME280;59577;52.122;5.406;2024-03-29T06:24:07;99262.09;;;7.53;100.00
71735;BME280;59577;52.122;5.406;2024-03-29T06:26:34;99255.16;;;7.52;100.00
71735;BME280;59577;52.122;5.406;2024-03-29T06:29:00;99251.75;;;7.59;100.00
71735;BME280;59577;52.122;5.406;2024-03-29T06:31:26;99247.63;;;7.68;100.00
71735;BME280;59577;52.122;5.406;2024-03-29T06:33:52;99257.09;;;7.96;100.00
71735;BME280;59577;52.122;5.406;2024-03-29T06:36:17;99264.06;;;8.04;100.00
71735;BME280;59577;52.122;5.406;2024-03-29T06:38:43;99255.53;;;7.95;100.00
71735;BME280;59577;52.122;5.406;2024-03-29T06:41:08;99261.31;;;7.97;100.00
71735;BME280;59577;52.122;5.406;2024-03-29T06:43:34;99257.13;;;8.00;100.00
71735;BME280;59577;52.122;5.406;2024-03-29T06:45:59;99252.16;;;8.05;100.00
71735;BME280;59577;52.122;5.406;2024-03-29T06:48:28;99251.03;;;8.10;100.00
71735;BME280;59577;52.122;5.406;2024-03-29T06:50:53;99249.50;;;8.13;100.00
71735;BME280;59577;52.122;5.406;2024-03-29T06:53:19;99249.50;;;8.09;100.00
71735;BME280;59577;52.122;5.406;2024-03-29T06:55:45;99240.63;;;8.05;100.00
71735;BME280;59577;52.122;5.406;2024-03-29T06:58:11;99244.03;;;8.02;100.00
71735;BME280;59577;52.122;5.406;2024-03-29T07:00:36;99230.16;;;7.96;100.00
71735;BME280;59577;52.122;5.406;2024-03-29T07:03:02;99227.47;;;7.96;100.00
71735;BME280;59577;52.122;5.406;2024-03-29T07:05:28;99236.31;;;7.97;100.00
71735;BME280;59577;52.122;5.406;2024-03-29T07:07:53;99237.06;;;7.97;100.00
71735;BME280;59577;52.122;5.406;2024-03-29T07:10:21;99234.38;;;7.97;100.00
71735;BME280;59577;52.122;5.406;2024-03-29T07:12:47;99235.19;;;8.01;100.00
71735;BME280;59577;52.122;5.406;2024-03-29T07:15:12;99240.63;;;8.05;100.00
71735;BME280;59577;52.122;5.406;2024-03-29T07:17:38;99237.16;;;8.08;100.00
71735;BME280;59577;52.122;5.406;2024-03-29T07:20:03;99249.09;;;8.07;100.00
71735;BME280;59577;52.122;5.406;2024-03-29T07:22:30;99240.25;;;8.06;100.00
71735;BME280;59577;52.122;5.406;2024-03-29T07:24:56;99244.44;;;8.04;100.00
71735;BME280;59577;52.122;5.406;2024-03-29T07:27:21;99242.50;;;8.01;100.00
71735;BME280;59577;52.122;5.406;2024-03-29T07:29:47;99256.38;;;8.03;100.00
71735;BME280;59577;52.122;5.406;2024-03-29T07:32:12;99262.53;;;8.03;100.00
71735;BME280;59577;52.122;5.406;2024-03-29T07:34:38;99257.53;;;8.05;100.00
71735;BME280;59577;52.122;5.406;2024-03-29T07:37:05;99271.81;;;8.09;100.00
71735;BME280;59577;52.122;5.406;2024-03-29T07:39:30;99282.59;;;8.09;100.00
71735;BME280;59577;52.122;5.406;2024-03-29T07:41:56;99268.75;;;8.11;100.00
71735;BME280;59577;52.122;5.406;2024-03-29T07:44:21;99280.34;;;8.15;100.00
71735;BME280;59577;52.122;5.406;2024-03-29T07:46:48;99268.84;;;8.22;100.00
71735;BME280;59577;52.122;5.406;2024-03-29T07:49:14;99269.28;;;8.31;100.00
71735;BME280;59577;52.122;5.406;2024-03-29T07:51:39;99265.19;;;8.44;100.00
71735;BME280;59577;52.122;5.406;2024-03-29T07:54:05;99266.78;;;8.56;100.00
71735;BME280;59577;52.122;5.406;2024-03-29T07:56:31;99278.13;;;8.87;100.00
71735;BME280;59577;52.122;5.406;2024-03-29T07:58:56;99273.56;;;8.98;100.00
71735;BME280;59577;52.122;5.406;2024-03-29T08:01:23;99277.88;;;9.21;100.00
71735;BME280;59577;52.122;5.406;2024-03-29T08:03:52;99277.91;;;9.25;100.00
71735;BME280;59577;52.122;5.406;2024-03-29T08:06:20;99262.47;;;9.29;100.00
71735;BME280;59577;52.122;5.406;2024-03-29T08:08:49;99258.28;;;9.42;100.00
71735;BME280;59577;52.122;5.406;2024-03-29T08:11:15;99242.88;;;9.60;100.00
71735;BME280;59577;52.122;5.406;2024-03-29T08:13:40;99249.44;;;10.28;100.00
71735;BME280;59577;52.122;5.406;2024-03-29T08:16:06;99247.53;;;12.43;100.00
71735;BME280;59577;52.122;5.406;2024-03-29T08:18:32;99264.56;;;14.21;100.00
71735;BME280;59577;52.122;5.406;2024-03-29T08:20:59;99272.88;;;14.81;93.91
71735;BME280;59577;52.122;5.406;2024-03-29T08:23:26;99286.22;;;14.52;91.60
71735;BME280;59577;52.122;5.406;2024-03-29T08:25:51;99283.28;;;14.19;89.34
71735;BME280;59577;52.122;5.406;2024-03-29T08:28:18;99271.69;;;13.64;91.46
71735;BME280;59577;52.122;5.406;2024-03-29T08:30:44;99275.72;;;13.80;93.89
71735;BME280;59577;52.122;5.406;2024-03-29T08:33:10;99273.38;;;14.29;90.38
71735;BME280;59577;52.122;5.406;2024-03-29T08:35:35;99263.25;;;15.13;88.54
71735;BME280;59577;52.122;5.406;2024-03-29T08:38:01;99266.28;;;16.21;84.84
71735;BME280;59577;52.122;5.406;2024-03-29T08:40:28;99274.69;;;16.89;77.75
71735;BME280;59577;52.122;5.406;2024-03-29T08:42:55;99279.63;;;16.65;77.07
71735;BME280;59577;52.122;5.406;2024-03-29T08:45:21;99294.06;;;15.30;78.58
71735;BME280;59577;52.122;5.406;2024-03-29T08:47:47;99293.81;;;14.17;83.12
71735;BME280;59577;52.122;5.406;2024-03-29T08:50:13;99291.69;;;13.78;86.76
71735;BME280;59577;52.122;5.406;2024-03-29T08:52:39;99278.66;;;13.65;86.05
71735;BME280;59577;52.122;5.406;2024-03-29T08:55:06;99286.09;;;13.88;87.68
71735;BME280;59577;52.122;5.406;2024-03-29T08:57:32;99288.72;;;14.19;85.25
71735;BME280;59577;52.122;5.406;2024-03-29T08:59:58;99297.47;;;13.52;84.18
71735;BME280;59577;52.122;5.406;2024-03-29T09:02:23;99279.50;;;13.31;87.20
71735;BME280;59577;52.122;5.406;2024-03-29T09:04:49;99298.13;;;13.33;86.51
71735;BME280;59577;52.122;5.406;2024-03-29T09:07:15;99284.28;;;13.51;87.73
71735;BME280;59577;52.122;5.406;2024-03-29T09:09:40;99297.78;;;14.36;86.76
71735;BME280;59577;52.122;5.406;2024-03-29T09:12:10;99286.41;;;14.41;84.09
71735;BME280;59577;52.122;5.406;2024-03-29T09:14:35;99296.56;;;14.37;84.18
71735;BME280;59577;52.122;5.406;2024-03-29T09:17:01;99297.56;;;14.47;84.58
71735;BME280;59577;52.122;5.406;2024-03-29T09:19:28;99298.66;;;14.29;84.37
71735;BME280;59577;52.122;5.406;2024-03-29T09:21:55;99290.59;;;13.71;84.20
71735;BME280;59577;52.122;5.406;2024-03-29T09:24:21;99297.53;;;13.14;86.40
71735;BME280;59577;52.122;5.406;2024-03-29T09:26:50;99305.31;;;12.78;88.10
71735;BME280;59577;52.122;5.406;2024-03-29T09:29:16;99311.06;;;12.46;88.89
71735;BME280;59577;52.122;5.406;2024-03-29T09:31:43;99313.19;;;12.27;89.71
71735;BME280;59577;52.122;5.406;2024-03-29T09:34:08;99315.63;;;12.11;90.44
71735;BME280;59577;52.122;5.406;2024-03-29T09:36:34;99322.09;;;12.24;92.55
71735;BME280;59577;52.122;5.406;2024-03-29T09:39:00;99329.31;;;12.41;90.89
71735;BME280;59577;52.122;5.406;2024-03-29T09:41:26;99332.13;;;12.31;92.52
71735;BME280;59577;52.122;5.406;2024-03-29T09:43:57;99326.28;;;12.36;91.57
71735;BME280;59577;52.122;5.406;2024-03-29T09:46:25;99322.03;;;12.31;90.98
71735;BME280;59577;52.122;5.406;2024-03-29T09:48:53;99321.75;;;12.22;90.22
71735;BME280;59577;52.122;5.406;2024-03-29T09:51:21;99324.88;;;12.17;91.38
71735;BME280;59577;52.122;5.406;2024-03-29T09:53:47;99326.06;;;12.12;90.52
71735;BME280;59577;52.122;5.406;2024-03-29T09:56:14;99338.22;;;11.86;91.08
71735;BME280;59577;52.122;5.406;2024-03-29T09:58:39;99347.97;;;11.76;92.26
71735;BME280;59577;52.122;5.406;2024-03-29T10:01:06;99347.94;;;11.83;93.10
71735;BME280;59577;52.122;5.406;2024-03-29T10:03:36;99350.63;;;11.94;93.85
71735;BME280;59577;52.122;5.406;2024-03-29T10:06:02;99341.25;;;12.06;94.69
71735;BME280;59577;52.122;5.406;2024-03-29T10:08:29;99335.69;;;12.24;93.11
71735;BME280;59577;52.122;5.406;2024-03-29T10:10:56;99329.34;;;12.38;94.08
71735;BME280;59577;52.122;5.406;2024-03-29T10:13:22;99333.25;;;12.33;91.73
71735;BME280;59577;52.122;5.406;2024-03-29T10:15:51;99321.66;;;12.33;94.00
71735;BME280;59577;52.122;5.406;2024-03-29T10:18:19;99325.56;;;12.70;92.89
71735;BME280;59577;52.122;5.406;2024-03-29T10:20:46;99316.47;;;13.22;91.80
71735;BME280;59577;52.122;5.406;2024-03-29T10:23:12;99319.56;;;13.24;89.45
71735;BME280;59577;52.122;5.406;2024-03-29T10:25:37;99317.88;;;13.37;89.83
71735;BME280;59577;52.122;5.406;2024-03-29T10:28:03;99327.56;;;13.69;89.15
71735;BME280;59577;52.122;5.406;2024-03-29T10:30:29;99316.41;;;13.87;86.28
71735;BME280;59577;52.122;5.406;2024-03-29T10:32:58;99319.72;;;14.49;86.82
71735;BME280;59577;52.122;5.406;2024-03-29T10:35:27;99327.09;;;14.72;82.67
71735;BME280;59577;52.122;5.406;2024-03-29T10:37:53;99329.31;;;15.01;80.25
71735;BME280;59577;52.122;5.406;2024-03-29T10:40:21;99328.53;;;15.40;80.33
71735;BME280;59577;52.122;5.406;2024-03-29T10:42:48;99334.16;;;15.50;77.28
71735;BME280;59577;52.122;5.406;2024-03-29T10:45:14;99338.97;;;15.06;77.26
71735;BME280;59577;52.122;5.406;2024-03-29T10:47:41;99348.53;;;14.70;79.99
71735;BME280;59577;52.122;5.406;2024-03-29T10:50:12;99328.47;;;14.37;81.39
71735;BME280;59577;52.122;5.406;2024-03-29T10:52:40;99321.09;;;14.81;81.35
71735;BME280;59577;52.122;5.406;2024-03-29T10:55:10;99325.88;;;15.37;80.65
71735;BME280;59577;52.122;5.406;2024-03-29T10:57:40;99331.19;;;15.24;79.05
71735;BME280;59577;52.122;5.406;2024-03-29T11:00:14;99340.22;;;15.21;79.18
71735;BME280;59577;52.122;5.406;2024-03-29T11:05:28;99352.28;;;14.80;78.98
71735;BME280;59577;52.122;5.406;2024-03-29T11:07:56;99360.13;;;14.51;80.42
71735;BME280;59577;52.122;5.406;2024-03-29T11:10:51;99352.47;;;14.69;81.94
71735;BME280;59577;52.122;5.406;2024-03-29T11:16:02;99382.34;;;15.36;80.25
71735;BME280;59577;52.122;5.406;2024-03-29T11:18:28;99371.31;;;15.23;76.60
71735;BME280;59577;52.122;5.406;2024-03-29T11:20:54;99373.09;;;14.90;78.64
71735;BME280;59577;52.122;5.406;2024-03-29T11:23:21;99355.28;;;14.85;80.24
71735;BME280;59577;52.122;5.406;2024-03-29T11:25:52;99352.50;;;15.29;81.89
71735;BME280;59577;52.122;5.406;2024-03-29T11:28:24;99353.97;;;15.34;80.18
71735;BME280;59577;52.122;5.406;2024-03-29T11:30:52;99342.94;;;15.21;79.41
71735;BME280;59577;52.122;5.406;2024-03-29T11:33:25;99344.91;;;15.00;77.51
71735;BME280;59577;52.122;5.406;2024-03-29T11:35:51;99338.06;;;14.69;79.33
71735;BME280;59577;52.122;5.406;2024-03-29T11:38:20;99347.13;;;14.62;80.49
71735;BME280;59577;52.122;5.406;2024-03-29T11:41:06;99351.22;;;15.14;79.76
71735;BME280;59577;52.122;5.406;2024-03-29T11:43:33;99342.31;;;15.13;79.10
71735;BME280;59577;52.122;5.406;2024-03-29T11:46:00;99348.78;;;14.99;77.98
71735;BME280;59577;52.122;5.406;2024-03-29T11:48:28;99354.81;;;15.11;79.18
71735;BME280;59577;52.122;5.406;2024-03-29T11:50:54;99345.44;;;15.12;79.49
71735;BME280;59577;52.122;5.406;2024-03-29T11:53:20;99359.75;;;14.96;74.99
71735;BME280;59577;52.122;5.406;2024-03-29T11:55:46;99365.88;;;14.56;76.68
71735;BME280;59577;52.122;5.406;2024-03-29T11:58:14;99358.81;;;14.62;77.09
71735;BME280;59577;52.122;5.406;2024-03-29T12:00:41;99356.91;;;14.59;76.74
71735;BME280;59577;52.122;5.406;2024-03-29T12:03:10;99358.00;;;14.62;78.22
71735;BME280;59577;52.122;5.406;2024-03-29T12:05:35;99360.44;;;14.80;76.16
71735;BME280;59577;52.122;5.406;2024-03-29T12:08:01;99361.63;;;14.79;76.28
71735;BME280;59577;52.122;5.406;2024-03-29T12:10:30;99374.59;;;14.71;76.92
71735;BME280;59577;52.122;5.406;2024-03-29T12:12:56;99371.81;;;14.75;77.85
71735;BME280;59577;52.122;5.406;2024-03-29T12:15:27;99388.91;;;14.75;77.15
71735;BME280;59577;52.122;5.406;2024-03-29T12:17:54;99388.06;;;14.55;76.62
71735;BME280;59577;52.122;5.406;2024-03-29T12:20:20;99402.63;;;14.44;78.62
71735;BME280;59577;52.122;5.406;2024-03-29T12:22:46;99386.41;;;14.37;77.95
71735;BME280;59577;52.122;5.406;2024-03-29T12:25:12;99390.34;;;14.33;77.17
71735;BME280;59577;52.122;5.406;2024-03-29T12:27:38;99390.47;;;14.25;78.12
71735;BME280;59577;52.122;5.406;2024-03-29T12:30:05;99377.94;;;14.32;79.47
71735;BME280;59577;52.122;5.406;2024-03-29T12:32:31;99388.84;;;14.55;78.83
71735;BME280;59577;52.122;5.406;2024-03-29T12:35:07;99389.97;;;14.58;77.65
71735;BME280;59577;52.122;5.406;2024-03-29T12:37:33;99390.06;;;14.78;79.32
71735;BME280;59577;52.122;5.406;2024-03-29T12:39:59;99397.63;;;15.10;78.78
71735;BME280;59577;52.122;5.406;2024-03-29T12:42:25;99405.63;;;15.41;77.20
71735;BME280;59577;52.122;5.406;2024-03-29T12:44:51;99406.84;;;15.40;76.87
71735;BME280;59577;52.122;5.406;2024-03-29T12:47:17;99398.00;;;15.32;77.00
71735;BME280;59577;52.122;5.406;2024-03-29T12:49:43;99391.78;;;15.32;75.99
71735;BME280;59577;52.122;5.406;2024-03-29T12:52:09;99394.44;;;15.15;77.78
71735;BME280;59577;52.122;5.406;2024-03-29T12:54:35;99394.66;;;15.25;76.21
71735;BME280;59577;52.122;5.406;2024-03-29T12:57:00;99413.66;;;15.08;74.99
71735;BME280;59577;52.122;5.406;2024-03-29T12:59:28;99398.72;;;14.93;73.92
71735;BME280;59577;52.122;5.406;2024-03-29T13:01:54;99399.22;;;14.88;74.71
71735;BME280;59577;52.122;5.406;2024-03-29T13:04:22;99394.59;;;14.84;75.72
71735;BME280;59577;52.122;5.406;2024-03-29T13:06:47;99390.69;;;14.85;77.07